Joe Foss Field Airport
KFSD : now visible

Airfield :











YOU CAN JOIN US ON...

 
LOGIN :

Register | Disclaimer

   EN    FR    IT 

 









Legend :    VFR   Marginal VFR   IFR   Intensive IFR   Very Intensive IFR
Visi :
Ceiling :
>= 8 km
>= 3000ft
5 to 8 km
1000 to 3000 ft
1500m to 5 km
500 to 1000 ft
800 to 1500m
200 to 500 ft
< 800m
< 200 ft
Symbols :   Thunderstorms  Fog  Heavy snow  Heavy precipitations  Wind > 20 kt







- Airport Elevation : 1429 ft
- IATA code : FSD


KFSD - Joe Foss Field

CURRENT METAR :
  • 230156Z 08007KT 10SM SCT250 05/02 A3017 RMK AO2 SLP228 T00500022

EXPIRED METARs :
  • 230056Z 09006KT 10SM SCT250 07/01 A3016 RMK AO2 SLP228 T00720011
  • 222356Z 11008KT 10SM SCT250 11/02 A3016 RMK AO2 SLP224 T01110017 10128 20094 55007

TAF KFSD
Valid from the 23 at 00:00 until the 24 at 00:00 UTC


222320Z 2300/2324 10007KT P6SM FEW200
FM230700 12007KT P6SM BKN150
FM232100 16008KT P6SM VCSH OVC050
KZMP FIR / North America



MET'MAP, your aeronautical weather chart ! - Copyright ORBIFLY December 2007 - Disclaimer

ORBIFLY MET'MAP TEAM :

Programming & Development : Alexandra Zaïnal
Concept & Development : Baudouin d'Aumeries
Co-Development & Prog : Marc-Olivier Méhu
Technical & hardware support : Manuel Goepfert

Contact : metmap@orbifly.com




SOURCES & CREDITS :

   NOAA       Earth
Advisory